Station History

Weather Underground - logo

Station Historical Data
Daily Summary for February 6, 2018 Units:  Both    English   Metric
« Previous Day
Next Day »
Daily Weekly Monthly Yearly Custom
  High: Low: Average:
Temperature: 72.3 °F /  22.4 °C 44.7 °F /  7.1 °C 56.9 °F /  13.8 °C
Dew Point: 55.4 °F /  13 °C 42.6 °F /  5.9 °C 49.1 °F /  9.5 °C
Humidity: 94 % 46 % 77 %
Wind Speed: 5.8 mph /  9.3 km/h - 0.5 mph /  0.8 km/h
Wind Gust: 5.8 mph /  9.3 km/h - -
Wind:- - WSW
Pressure: 30.18 in /  1021.9 hPa 29.99 in /  1015.5 hPa -
Precipitation: 0.00 in /  0 mm    
Historical Graphs
 
 
Tabular Data for February 6, 2018
Time Temperature Dew Point Pressure Wind Wind Speed Wind Gust Humidity Rainfall Rate (Hourly)
00:00 51.7 °F /  10.9 °C 48.3 °F /  9.1 °C 30.01 in /  1016.1 hPa Calm     88 % 0.00 in /  0 mm
00:05 51.5 °F /  10.8 °C 47.8 °F /  8.8 °C 30.01 in /  1016.1 hPa Calm     87 % 0.00 in /  0 mm
00:10 51.1 °F /  10.6 °C 47.4 °F /  8.6 °C 30.00 in /  1015.8 hPa Calm     87 % 0.00 in /  0 mm
00:15 50.5 °F /  10.3 °C 46.8 °F /  8.2 °C 30.01 in /  1016.1 hPa Calm     87 % 0.00 in /  0 mm
00:20 50.3 °F /  10.2 °C 46.9 °F /  8.3 °C 30.00 in /  1015.8 hPa Calm     88 % 0.00 in /  0 mm
00:25 50.0 °F /  10 °C 46.6 °F /  8.1 °C 30.00 in /  1015.8 hPa Calm     88 % 0.00 in /  0 mm
00:30 49.5 °F /  9.7 °C 46.1 °F /  7.8 °C 30.00 in /  1015.8 hPa Calm     88 % 0.00 in /  0 mm
00:35 49.2 °F /  9.6 °C 45.8 °F /  7.7 °C 30.00 in /  1015.8 hPa Calm     88 % 0.00 in /  0 mm
00:40 49.0 °F /  9.4 °C 45.9 °F /  7.7 °C 30.00 in /  1015.8 hPa Calm     89 % 0.00 in /  0 mm
00:45 48.8 °F /  9.3 °C 46.0 °F /  7.8 °C 30.00 in /  1015.8 hPa Calm     90 % 0.00 in /  0 mm
00:51 49.1 °F /  9.5 °C 46.6 °F /  8.1 °C 30.00 in /  1015.8 hPa Calm     91 % 0.00 in /  0 mm
00:56 49.8 °F /  9.9 °C 47.3 °F /  8.5 °C 30.00 in /  1015.8 hPa Calm     91 % 0.00 in /  0 mm
01:01 50.4 °F /  10.2 °C 47.6 °F /  8.7 °C 30.00 in /  1015.8 hPa Calm     90 % 0.00 in /  0 mm
01:06 50.5 °F /  10.3 °C 47.4 °F /  8.6 °C 30.00 in /  1015.8 hPa Calm     89 % 0.00 in /  0 mm
01:11 50.8 °F /  10.4 °C 48.0 °F /  8.9 °C 30.00 in /  1015.8 hPa Calm     90 % 0.00 in /  0 mm
01:16 51.2 °F /  10.7 °C 48.4 °F /  9.1 °C 30.00 in /  1015.8 hPa SE 1.2 mph /  1.9 km/h   90 % 0.00 in /  0 mm
01:21 51.5 °F /  10.8 °C 48.4 °F /  9.1 °C 29.99 in /  1015.5 hPa West 1.0 mph /  1.6 km/h   89 % 0.00 in /  0 mm
01:26 51.7 °F /  10.9 °C 48.3 °F /  9.1 °C 30.00 in /  1015.8 hPa NNW 1.2 mph /  1.9 km/h 1.2 mph /  1.9 km/h 88 % 0.00 in /  0 mm
01:31 51.9 °F /  11.1 °C 48.5 °F /  9.2 °C 30.00 in /  1015.8 hPa Calm     88 % 0.00 in /  0 mm
01:36 51.8 °F /  11 °C 48.4 °F /  9.1 °C 30.00 in /  1015.8 hPa NNW 1.2 mph /  1.9 km/h 1.2 mph /  1.9 km/h 88 % 0.00 in /  0 mm
01:41 51.8 °F /  11 °C 48.4 °F /  9.1 °C 30.00 in /  1015.8 hPa Calm     88 % 0.00 in /  0 mm
01:46 51.5 °F /  10.8 °C 47.8 °F /  8.8 °C 30.00 in /  1015.8 hPa Calm     87 % 0.00 in /  0 mm
01:51 50.8 °F /  10.4 °C 46.8 °F /  8.2 °C 30.00 in /  1015.8 hPa Calm     86 % 0.00 in /  0 mm
01:56 49.8 °F /  9.9 °C 46.1 °F /  7.8 °C 30.00 in /  1015.8 hPa Calm     87 % 0.00 in /  0 mm
02:01 49.0 °F /  9.4 °C 45.6 °F /  7.6 °C 30.00 in /  1015.8 hPa Calm     88 % 0.00 in /  0 mm
02:06 48.4 °F /  9.1 °C 45.0 °F /  7.2 °C 30.00 in /  1015.8 hPa NNW 5.8 mph /  9.3 km/h 5.8 mph /  9.3 km/h 88 % 0.00 in /  0 mm
02:11 48.0 °F /  8.9 °C 44.9 °F /  7.2 °C 30.00 in /  1015.8 hPa Calm     89 % 0.00 in /  0 mm
02:16 47.5 °F /  8.6 °C 44.7 °F /  7.1 °C 30.00 in /  1015.8 hPa Calm     90 % 0.00 in /  0 mm
02:21 47.3 °F /  8.5 °C 44.5 °F /  6.9 °C 30.00 in /  1015.8 hPa Calm     90 % 0.00 in /  0 mm
02:26 47.3 °F /  8.5 °C 44.8 °F /  7.1 °C 30.00 in /  1015.8 hPa Calm     91 % 0.00 in /  0 mm
02:31 47.2 °F /  8.4 °C 44.7 °F /  7.1 °C 30.00 in /  1015.8 hPa Calm     91 % 0.00 in /  0 mm
02:36 47.1 °F /  8.4 °C 44.9 °F /  7.2 °C 30.00 in /  1015.8 hPa Calm     92 % 0.00 in /  0 mm
02:41 46.9 °F /  8.3 °C 44.7 °F /  7.1 °C 30.00 in /  1015.8 hPa Calm     92 % 0.00 in /  0 mm
02:46 47.0 °F /  8.3 °C 44.8 °F /  7.1 °C 30.00 in /  1015.8 hPa Calm     92 % 0.00 in /  0 mm
02:51 46.9 °F /  8.3 °C 44.7 °F /  7.1 °C 30.00 in /  1015.8 hPa Calm     92 % 0.00 in /  0 mm
02:56 46.7 °F /  8.2 °C 44.5 °F /  6.9 °C 30.00 in /  1015.8 hPa Calm     92 % 0.00 in /  0 mm
03:01 46.6 °F /  8.1 °C 44.4 °F /  6.9 °C 30.00 in /  1015.8 hPa Calm     92 % 0.00 in /  0 mm
03:06 46.8 °F /  8.2 °C 44.9 °F /  7.2 °C 30.00 in /  1015.8 hPa Calm     93 % 0.00 in /  0 mm
03:11 46.8 °F /  8.2 °C 44.6 °F /  7 °C 30.00 in /  1015.8 hPa Calm     92 % 0.00 in /  0 mm
03:16 46.8 °F /  8.2 °C 44.9 °F /  7.2 °C 30.00 in /  1015.8 hPa Calm     93 % 0.00 in /  0 mm
03:21 46.7 °F /  8.2 °C 44.5 °F /  6.9 °C 30.00 in /  1015.8 hPa Calm     92 % 0.00 in /  0 mm
03:26 46.5 °F /  8.1 °C 44.3 °F /  6.8 °C 30.00 in /  1015.8 hPa Calm     92 % 0.00 in /  0 mm
03:31 46.6 °F /  8.1 °C 44.7 °F /  7.1 °C 30.00 in /  1015.8 hPa Calm     93 % 0.00 in /  0 mm
03:36 46.8 °F /  8.2 °C 44.9 °F /  7.2 °C 30.00 in /  1015.8 hPa Calm     93 % 0.00 in /  0 mm
03:41 47.0 °F /  8.3 °C 45.1 °F /  7.3 °C 30.00 in /  1015.8 hPa Calm     93 % 0.00 in /  0 mm
03:46 46.8 °F /  8.2 °C 44.9 °F /  7.2 °C 29.99 in /  1015.5 hPa Calm     93 % 0.00 in /  0 mm
03:51 46.5 °F /  8.1 °C 44.3 °F /  6.8 °C 30.00 in /  1015.8 hPa Calm     92 % 0.00 in /  0 mm
03:56 46.4 °F /  8 °C 44.2 °F /  6.8 °C 30.00 in /  1015.8 hPa Calm     92 % 0.00 in /  0 mm
04:02 46.3 °F /  7.9 °C 44.4 °F /  6.9 °C 29.99 in /  1015.5 hPa Calm     93 % 0.00 in /  0 mm
04:07 46.3 °F /  7.9 °C 44.4 °F /  6.9 °C 29.99 in /  1015.5 hPa Calm     93 % 0.00 in /  0 mm
04:12 46.1 °F /  7.8 °C 43.9 °F /  6.6 °C 30.00 in /  1015.8 hPa Calm     92 % 0.00 in /  0 mm
04:17 45.8 °F /  7.7 °C 43.6 °F /  6.4 °C 30.00 in /  1015.8 hPa Calm     92 % 0.00 in /  0 mm
04:22 45.6 °F /  7.6 °C 43.4 °F /  6.3 °C 30.00 in /  1015.8 hPa Calm     92 % 0.00 in /  0 mm
04:27 45.5 °F /  7.5 °C 43.3 °F /  6.3 °C 30.00 in /  1015.8 hPa Calm     92 % 0.00 in /  0 mm
04:32 45.4 °F /  7.4 °C 43.2 °F /  6.2 °C 30.00 in /  1015.8 hPa Calm     92 % 0.00 in /  0 mm
04:37 45.6 °F /  7.6 °C 43.7 °F /  6.5 °C 30.01 in /  1016.1 hPa Calm     93 % 0.00 in /  0 mm
04:42 45.7 °F /  7.6 °C 43.8 °F /  6.6 °C 30.01 in /  1016.1 hPa Calm     93 % 0.00 in /  0 mm
04:47 45.7 °F /  7.6 °C 43.8 °F /  6.6 °C 30.01 in /  1016.1 hPa Calm     93 % 0.00 in /  0 mm
04:52 45.8 °F /  7.7 °C 43.9 °F /  6.6 °C 30.01 in /  1016.1 hPa Calm     93 % 0.00 in /  0 mm
04:57 46.0 °F /  7.8 °C 44.1 °F /  6.7 °C 30.01 in /  1016.1 hPa Calm     93 % 0.00 in /  0 mm
05:02 46.1 °F /  7.8 °C 44.5 °F /  6.9 °C 30.01 in /  1016.1 hPa Calm     94 % 0.00 in /  0 mm
05:07 46.1 °F /  7.8 °C 44.5 °F /  6.9 °C 30.01 in /  1016.1 hPa Calm     94 % 0.00 in /  0 mm
05:12 46.2 °F /  7.9 °C 44.6 °F /  7 °C 30.01 in /  1016.1 hPa Calm     94 % 0.00 in /  0 mm
05:17 46.4 °F /  8 °C 44.8 °F /  7.1 °C 30.00 in /  1015.8 hPa Calm     94 % 0.00 in /  0 mm
05:22 46.3 °F /  7.9 °C 44.7 °F /  7.1 °C 30.01 in /  1016.1 hPa Calm     94 % 0.00 in /  0 mm
05:27 46.0 °F /  7.8 °C 44.1 °F /  6.7 °C 30.01 in /  1016.1 hPa Calm     93 % 0.00 in /  0 mm
05:32 45.4 °F /  7.4 °C 43.2 °F /  6.2 °C 30.01 in /  1016.1 hPa Calm     92 % 0.00 in /  0 mm
05:37 45.5 °F /  7.5 °C 43.6 °F /  6.4 °C 30.02 in /  1016.5 hPa Calm     93 % 0.00 in /  0 mm
05:42 45.5 °F /  7.5 °C 43.6 °F /  6.4 °C 30.02 in /  1016.5 hPa Calm     93 % 0.00 in /  0 mm
05:47 45.9 °F /  7.7 °C 44.3 °F /  6.8 °C 30.02 in /  1016.5 hPa Calm     94 % 0.00 in /  0 mm
05:52 45.8 °F /  7.7 °C 44.2 °F /  6.8 °C 30.02 in /  1016.5 hPa Calm     94 % 0.00 in /  0 mm
05:53 45.7 °F /  7.6 °C 43.8 °F /  6.6 °C 30.02 in /  1016.5 hPa Calm     93 % 0.00 in /  0 mm
05:58 45.4 °F /  7.4 °C 43.5 °F /  6.4 °C 30.02 in /  1016.5 hPa Calm     93 % 0.00 in /  0 mm
06:03 45.1 °F /  7.3 °C 42.9 °F /  6.1 °C 30.02 in /  1016.5 hPa Calm     92 % 0.00 in /  0 mm
06:08 44.8 °F /  7.1 °C 42.6 °F /  5.9 °C 30.02 in /  1016.5 hPa Calm     92 % 0.00 in /  0 mm
06:13 44.8 °F /  7.1 °C 42.9 °F /  6.1 °C 30.02 in /  1016.5 hPa Calm     93 % 0.00 in /  0 mm
06:18 44.7 °F /  7.1 °C 42.8 °F /  6 °C 30.03 in /  1016.8 hPa Calm     93 % 0.00 in /  0 mm
06:23 44.9 °F /  7.2 °C 43.3 °F /  6.3 °C 30.03 in /  1016.8 hPa Calm     94 % 0.00 in /  0 mm
06:28 45.2 °F /  7.3 °C 43.6 °F /  6.4 °C 30.03 in /  1016.8 hPa Calm     94 % 0.00 in /  0 mm
06:33 45.4 °F /  7.4 °C 43.8 °F /  6.6 °C 30.03 in /  1016.8 hPa Calm     94 % 0.00 in /  0 mm
06:38 45.4 °F /  7.4 °C 43.8 °F /  6.6 °C 30.03 in /  1016.8 hPa Calm     94 % 0.00 in /  0 mm
06:43 45.4 °F /  7.4 °C 43.8 °F /  6.6 °C 30.04 in /  1017.2 hPa Calm     94 % 0.00 in /  0 mm
06:48 45.6 °F /  7.6 °C 44.0 °F /  6.7 °C 30.04 in /  1017.2 hPa Calm     94 % 0.00 in /  0 mm
06:53 45.6 °F /  7.6 °C 44.0 °F /  6.7 °C 30.04 in /  1017.2 hPa Calm     94 % 0.00 in /  0 mm
06:58 45.6 °F /  7.6 °C 44.0 °F /  6.7 °C 30.04 in /  1017.2 hPa Calm     94 % 0.00 in /  0 mm
07:03 45.5 °F /  7.5 °C 43.6 °F /  6.4 °C 30.04 in /  1017.2 hPa Calm     93 % 0.00 in /  0 mm
07:08 45.4 °F /  7.4 °C 43.5 °F /  6.4 °C 30.04 in /  1017.2 hPa Calm     93 % 0.00 in /  0 mm
07:13 45.1 °F /  7.3 °C 43.2 °F /  6.2 °C 30.04 in /  1017.2 hPa Calm     93 % 0.00 in /  0 mm
07:18 44.8 °F /  7.1 °C 42.9 °F /  6.1 °C 30.05 in /  1017.5 hPa Calm     93 % 0.00 in /  0 mm
07:23 44.7 °F /  7.1 °C 42.8 °F /  6 °C 30.05 in /  1017.5 hPa Calm     93 % 0.00 in /  0 mm
07:28 44.7 °F /  7.1 °C 42.8 °F /  6 °C 30.05 in /  1017.5 hPa Calm     93 % 0.00 in /  0 mm
07:33 44.8 °F /  7.1 °C 42.9 °F /  6.1 °C 30.05 in /  1017.5 hPa Calm     93 % 0.00 in /  0 mm
07:39 45.1 °F /  7.3 °C 43.2 °F /  6.2 °C 30.05 in /  1017.5 hPa Calm     93 % 0.00 in /  0 mm
07:44 45.3 °F /  7.4 °C 43.4 °F /  6.3 °C 30.05 in /  1017.5 hPa Calm     93 % 0.00 in /  0 mm
07:49 45.5 °F /  7.5 °C 43.6 °F /  6.4 °C 30.06 in /  1017.8 hPa Calm     93 % 0.00 in /  0 mm
07:54 46.0 °F /  7.8 °C 44.1 °F /  6.7 °C 30.06 in /  1017.8 hPa Calm     93 % 0.00 in /  0 mm
07:59 46.7 °F /  8.2 °C 45.1 °F /  7.3 °C 30.06 in /  1017.8 hPa Calm     94 % 0.00 in /  0 mm
08:04 47.7 °F /  8.7 °C 46.1 °F /  7.8 °C 30.07 in /  1018.2 hPa Calm     94 % 0.00 in /  0 mm
08:09 48.7 °F /  9.3 °C 46.8 °F /  8.2 °C 30.07 in /  1018.2 hPa Calm     93 % 0.00 in /  0 mm
08:14 49.6 °F /  9.8 °C 47.4 °F /  8.6 °C 30.07 in /  1018.2 hPa NNW 1.2 mph /  1.9 km/h   92 % 0.00 in /  0 mm
08:19 49.9 °F /  9.9 °C 47.4 °F /  8.6 °C 30.07 in /  1018.2 hPa Calm     91 % 0.00 in /  0 mm
08:24 50.5 °F /  10.3 °C 47.7 °F /  8.7 °C 30.08 in /  1018.5 hPa Calm     90 % 0.00 in /  0 mm
08:29 51.1 °F /  10.6 °C 48.3 °F /  9.1 °C 30.08 in /  1018.5 hPa Calm     90 % 0.00 in /  0 mm
08:34 51.5 °F /  10.8 °C 48.4 °F /  9.1 °C 30.08 in /  1018.5 hPa Calm     89 % 0.00 in /  0 mm
08:39 51.4 °F /  10.8 °C 48.0 °F /  8.9 °C 30.08 in /  1018.5 hPa Calm     88 % 0.00 in /  0 mm
08:44 51.5 °F /  10.8 °C 48.4 °F /  9.1 °C 30.08 in /  1018.5 hPa Calm     89 % 0.00 in /  0 mm
08:49 51.8 °F /  11 °C 48.7 °F /  9.3 °C 30.08 in /  1018.5 hPa Calm     89 % 0.00 in /  0 mm
08:54 52.3 °F /  11.3 °C 48.9 °F /  9.4 °C 30.08 in /  1018.5 hPa Calm     88 % 0.00 in /  0 mm
08:59 53.4 °F /  11.9 °C 50.2 °F /  10.1 °C 30.09 in /  1018.8 hPa Calm     89 % 0.00 in /  0 mm
09:04 54.4 °F /  12.4 °C 50.3 °F /  10.2 °C 30.09 in /  1018.8 hPa Calm     86 % 0.00 in /  0 mm
09:09 55.5 °F /  13.1 °C 50.7 °F /  10.4 °C 30.09 in /  1018.8 hPa Calm     84 % 0.00 in /  0 mm
09:14 56.3 °F /  13.5 °C 50.9 °F /  10.5 °C 30.09 in /  1018.8 hPa South 1.2 mph /  1.9 km/h   82 % 0.00 in /  0 mm
09:19 56.9 °F /  13.8 °C 51.1 °F /  10.6 °C 30.09 in /  1018.8 hPa Calm     81 % 0.00 in /  0 mm
09:24 57.6 °F /  14.2 °C 51.1 °F /  10.6 °C 30.09 in /  1018.8 hPa ENE 3.5 mph /  5.6 km/h 3.5 mph /  5.6 km/h 79 % 0.00 in /  0 mm
09:29 58.0 °F /  14.4 °C 51.5 °F /  10.8 °C 30.09 in /  1018.8 hPa Calm     79 % 0.00 in /  0 mm
09:34 58.6 °F /  14.8 °C 51.4 °F /  10.8 °C 30.10 in /  1019.2 hPa SSE 1.2 mph /  1.9 km/h 1.2 mph /  1.9 km/h 77 % 0.00 in /  0 mm
09:39 58.9 °F /  14.9 °C 51.3 °F /  10.7 °C 30.10 in /  1019.2 hPa NE 1.0 mph /  1.6 km/h 1.0 mph /  1.6 km/h 76 % 0.00 in /  0 mm
09:44 59.1 °F /  15.1 °C 51.5 °F /  10.8 °C 30.09 in /  1018.8 hPa South 1.2 mph /  1.9 km/h 1.2 mph /  1.9 km/h 76 % 0.00 in /  0 mm
09:49 59.5 °F /  15.3 °C 51.2 °F /  10.7 °C 30.10 in /  1019.2 hPa SE 3.5 mph /  5.6 km/h 3.5 mph /  5.6 km/h 74 % 0.00 in /  0 mm
09:54 59.3 °F /  15.2 °C 51.0 °F /  10.6 °C 30.10 in /  1019.2 hPa SSE 1.2 mph /  1.9 km/h 1.2 mph /  1.9 km/h 74 % 0.00 in /  0 mm
09:59 60.0 °F /  15.6 °C 52.1 °F /  11.2 °C 30.10 in /  1019.2 hPa ESE 1.0 mph /  1.6 km/h 1.0 mph /  1.6 km/h 75 % 0.00 in /  0 mm
10:04 60.6 °F /  15.9 °C 52.3 °F /  11.3 °C 30.10 in /  1019.2 hPa ENE 1.2 mph /  1.9 km/h 1.2 mph /  1.9 km/h 74 % 0.00 in /  0 mm
10:09 61.0 °F /  16.1 °C 51.9 °F /  11.1 °C 30.10 in /  1019.2 hPa SE 2.3 mph /  3.7 km/h 2.3 mph /  3.7 km/h 72 % 0.00 in /  0 mm
10:14 61.5 °F /  16.4 °C 52.4 °F /  11.3 °C 30.10 in /  1019.2 hPa Calm   0.3 mph /  0.5 km/h 72 % 0.00 in /  0 mm
10:19 62.1 °F /  16.7 °C 52.2 °F /  11.2 °C 30.10 in /  1019.2 hPa ESE 2.3 mph /  3.7 km/h   70 % 0.00 in /  0 mm
10:24 62.6 °F /  17 °C 52.3 °F /  11.3 °C 30.10 in /  1019.2 hPa ESE 3.5 mph /  5.6 km/h 3.5 mph /  5.6 km/h 69 % 0.00 in /  0 mm
10:29 62.8 °F /  17.1 °C 52.5 °F /  11.4 °C 30.10 in /  1019.2 hPa SE 1.2 mph /  1.9 km/h 1.2 mph /  1.9 km/h 69 % 0.00 in /  0 mm
10:34 63.0 °F /  17.2 °C 51.9 °F /  11.1 °C 30.10 in /  1019.2 hPa NW 3.5 mph /  5.6 km/h 3.5 mph /  5.6 km/h 67 % 0.00 in /  0 mm
10:39 62.8 °F /  17.1 °C 52.5 °F /  11.4 °C 30.10 in /  1019.2 hPa Calm   0.3 mph /  0.5 km/h 69 % 0.00 in /  0 mm
10:44 63.6 °F /  17.6 °C 52.8 °F /  11.6 °C 30.10 in /  1019.2 hPa SSE 2.3 mph /  3.7 km/h 2.3 mph /  3.7 km/h 68 % 0.00 in /  0 mm
10:49 63.5 °F /  17.5 °C 51.9 °F /  11.1 °C 30.10 in /  1019.2 hPa NNW 2.3 mph /  3.7 km/h 2.3 mph /  3.7 km/h 66 % 0.00 in /  0 mm
10:54 63.9 °F /  17.7 °C 52.7 °F /  11.5 °C 30.10 in /  1019.2 hPa SE 2.3 mph /  3.7 km/h 2.3 mph /  3.7 km/h 67 % 0.00 in /  0 mm
10:59 64.3 °F /  17.9 °C 52.7 °F /  11.5 °C 30.09 in /  1018.8 hPa South 2.3 mph /  3.7 km/h   66 % 0.00 in /  0 mm
11:04 64.7 °F /  18.2 °C 52.2 °F /  11.2 °C 30.09 in /  1018.8 hPa NW 2.3 mph /  3.7 km/h 2.3 mph /  3.7 km/h 64 % 0.00 in /  0 mm
11:09 65.1 °F /  18.4 °C 53.0 °F /  11.7 °C 30.09 in /  1018.8 hPa SSE 1.2 mph /  1.9 km/h 1.2 mph /  1.9 km/h 65 % 0.00 in /  0 mm
11:14 65.9 °F /  18.8 °C 53.4 °F /  11.9 °C 30.09 in /  1018.8 hPa NW 1.0 mph /  1.6 km/h 1.0 mph /  1.6 km/h 64 % 0.00 in /  0 mm
11:19 65.9 °F /  18.8 °C 52.9 °F /  11.6 °C 30.09 in /  1018.8 hPa NW 2.3 mph /  3.7 km/h   63 % 0.00 in /  0 mm
11:24 66.2 °F /  19 °C 53.7 °F /  12.1 °C 30.09 in /  1018.8 hPa Calm   0.2 mph /  0.3 km/h 64 % 0.00 in /  0 mm
11:29 66.8 °F /  19.3 °C 53.4 °F /  11.9 °C 30.09 in /  1018.8 hPa NW 1.2 mph /  1.9 km/h 1.2 mph /  1.9 km/h 62 % 0.00 in /  0 mm
11:34 67.4 °F /  19.7 °C 53.0 °F /  11.7 °C 30.09 in /  1018.8 hPa WNW 2.3 mph /  3.7 km/h 2.3 mph /  3.7 km/h 60 % 0.00 in /  0 mm
11:39 67.7 °F /  19.8 °C 53.3 °F /  11.8 °C 30.09 in /  1018.8 hPa SSW 1.2 mph /  1.9 km/h 1.2 mph /  1.9 km/h 60 % 0.00 in /  0 mm
11:44 68.0 °F /  20 °C 54.0 °F /  12.2 °C 30.09 in /  1018.8 hPa NE 1.2 mph /  1.9 km/h   61 % 0.00 in /  0 mm
11:49 67.9 °F /  19.9 °C 52.6 °F /  11.4 °C 30.08 in /  1018.5 hPa NW 1.2 mph /  1.9 km/h 1.2 mph /  1.9 km/h 58 % 0.00 in /  0 mm
11:54 68.1 °F /  20.1 °C 53.2 °F /  11.8 °C 30.08 in /  1018.5 hPa SE 3.5 mph /  5.6 km/h 3.5 mph /  5.6 km/h 59 % 0.00 in /  0 mm
12:00 68.6 °F /  20.3 °C 53.7 °F /  12.1 °C 30.08 in /  1018.5 hPa NNW 2.3 mph /  3.7 km/h 2.3 mph /  3.7 km/h 59 % 0.00 in /  0 mm
12:05 68.9 °F /  20.5 °C 54.0 °F /  12.2 °C 30.08 in /  1018.5 hPa NNW 2.3 mph /  3.7 km/h 2.3 mph /  3.7 km/h 59 % 0.00 in /  0 mm
12:10 68.6 °F /  20.3 °C 53.7 °F /  12.1 °C 30.08 in /  1018.5 hPa Calm     59 % 0.00 in /  0 mm
12:15 68.8 °F /  20.4 °C 53.4 °F /  11.9 °C 30.07 in /  1018.2 hPa SE 2.3 mph /  3.7 km/h 2.3 mph /  3.7 km/h 58 % 0.00 in /  0 mm
12:20 69.4 °F /  20.8 °C 54.4 °F /  12.4 °C 30.07 in /  1018.2 hPa Calm     59 % 0.00 in /  0 mm
12:25 69.7 °F /  20.9 °C 53.8 °F /  12.1 °C 30.07 in /  1018.2 hPa NW 2.0 mph /  3.2 km/h 2.0 mph /  3.2 km/h 57 % 0.00 in /  0 mm
12:30 69.2 °F /  20.7 °C 53.8 °F /  12.1 °C 30.07 in /  1018.2 hPa NW 1.2 mph /  1.9 km/h 1.2 mph /  1.9 km/h 58 % 0.00 in /  0 mm
12:35 69.6 °F /  20.9 °C 53.7 °F /  12.1 °C 30.06 in /  1017.8 hPa NW 1.2 mph /  1.9 km/h 1.2 mph /  1.9 km/h 57 % 0.00 in /  0 mm
12:40 69.8 °F /  21 °C 54.4 °F /  12.4 °C 30.06 in /  1017.8 hPa East 2.0 mph /  3.2 km/h 2.0 mph /  3.2 km/h 58 % 0.00 in /  0 mm
12:45 70.5 °F /  21.4 °C 54.5 °F /  12.5 °C 30.06 in /  1017.8 hPa South 3.0 mph /  4.8 km/h 3.0 mph /  4.8 km/h 57 % 0.00 in /  0 mm
12:50 71.0 °F /  21.7 °C 55.0 °F /  12.8 °C 30.06 in /  1017.8 hPa NW 2.0 mph /  3.2 km/h 2.0 mph /  3.2 km/h 57 % 0.00 in /  0 mm
12:55 70.3 °F /  21.3 °C 53.9 °F /  12.2 °C 30.06 in /  1017.8 hPa NW 2.0 mph /  3.2 km/h 2.0 mph /  3.2 km/h 56 % 0.00 in /  0 mm
13:00 70.0 °F /  21.1 °C 54.1 °F /  12.3 °C 30.06 in /  1017.8 hPa SE 1.2 mph /  1.9 km/h 1.2 mph /  1.9 km/h 57 % 0.00 in /  0 mm
13:05 70.5 °F /  21.4 °C 55.0 °F /  12.8 °C 30.06 in /  1017.8 hPa South 1.2 mph /  1.9 km/h 1.2 mph /  1.9 km/h 58 % 0.00 in /  0 mm
13:10 70.5 °F /  21.4 °C 54.0 °F /  12.2 °C 30.05 in /  1017.5 hPa SSW 3.5 mph /  5.6 km/h 3.5 mph /  5.6 km/h 56 % 0.00 in /  0 mm
13:15 70.8 °F /  21.6 °C 54.8 °F /  12.7 °C 30.05 in /  1017.5 hPa SE 1.2 mph /  1.9 km/h 1.2 mph /  1.9 km/h 57 % 0.00 in /  0 mm
13:20 71.0 °F /  21.7 °C 54.5 °F /  12.5 °C 30.05 in /  1017.5 hPa Calm     56 % 0.00 in /  0 mm
13:25 71.4 °F /  21.9 °C 54.9 °F /  12.7 °C 30.05 in /  1017.5 hPa NNW 2.3 mph /  3.7 km/h 2.3 mph /  3.7 km/h 56 % 0.00 in /  0 mm
13:30 71.5 °F /  21.9 °C 55.0 °F /  12.8 °C 30.05 in /  1017.5 hPa SSE 3.5 mph /  5.6 km/h 3.5 mph /  5.6 km/h 56 % 0.00 in /  0 mm
13:35 72.0 °F /  22.2 °C 55.4 °F /  13 °C 30.05 in /  1017.5 hPa NW 2.0 mph /  3.2 km/h 2.0 mph /  3.2 km/h 56 % 0.00 in /  0 mm
13:40 71.6 °F /  22 °C 54.6 °F /  12.6 °C 30.04 in /  1017.2 hPa WNW 2.3 mph /  3.7 km/h 2.3 mph /  3.7 km/h 55 % 0.00 in /  0 mm
13:45 71.3 °F /  21.8 °C 53.8 °F /  12.1 °C 30.04 in /  1017.2 hPa West 3.5 mph /  5.6 km/h 3.5 mph /  5.6 km/h 54 % 0.00 in /  0 mm
13:50 71.3 °F /  21.8 °C 53.8 °F /  12.1 °C 30.04 in /  1017.2 hPa NW 1.2 mph /  1.9 km/h 1.2 mph /  1.9 km/h 54 % 0.00 in /  0 mm
13:55 71.1 °F /  21.7 °C 53.6 °F /  12 °C 30.04 in /  1017.2 hPa West 1.2 mph /  1.9 km/h 1.2 mph /  1.9 km/h 54 % 0.00 in /  0 mm
14:00 71.1 °F /  21.7 °C 52.6 °F /  11.4 °C 30.04 in /  1017.2 hPa NW 2.3 mph /  3.7 km/h 2.3 mph /  3.7 km/h 52 % 0.00 in /  0 mm
14:05 71.1 °F /  21.7 °C 53.6 °F /  12 °C 30.04 in /  1017.2 hPa Calm     54 % 0.00 in /  0 mm
14:10 71.5 °F /  21.9 °C 52.9 °F /  11.6 °C 30.03 in /  1016.8 hPa NW 1.2 mph /  1.9 km/h   52 % 0.00 in /  0 mm
14:15 71.8 °F /  22.1 °C 52.7 °F /  11.5 °C 30.03 in /  1016.8 hPa Calm     51 % 0.00 in /  0 mm
14:20 72.2 °F /  22.3 °C 53.6 °F /  12 °C 30.03 in /  1016.8 hPa SSW 1.2 mph /  1.9 km/h 1.2 mph /  1.9 km/h 52 % 0.00 in /  0 mm
14:25 72.2 °F /  22.3 °C 52.0 °F /  11.1 °C 30.03 in /  1016.8 hPa SSE 1.2 mph /  1.9 km/h   49 % 0.00 in /  0 mm
14:30 72.0 °F /  22.2 °C 52.9 °F /  11.6 °C 30.03 in /  1016.8 hPa Calm   0.2 mph /  0.3 km/h 51 % 0.00 in /  0 mm
14:35 72.0 °F /  22.2 °C 52.9 °F /  11.6 °C 30.03 in /  1016.8 hPa NW 1.2 mph /  1.9 km/h   51 % 0.00 in /  0 mm
14:40 72.2 °F /  22.3 °C 52.0 °F /  11.1 °C 30.03 in /  1016.8 hPa NNW 1.2 mph /  1.9 km/h   49 % 0.00 in /  0 mm
14:45 72.1 °F /  22.3 °C 51.3 °F /  10.7 °C 30.03 in /  1016.8 hPa NW 1.2 mph /  1.9 km/h 1.2 mph /  1.9 km/h 48 % 0.00 in /  0 mm
14:50 72.2 °F /  22.3 °C 51.4 °F /  10.8 °C 30.03 in /  1016.8 hPa West 1.2 mph /  1.9 km/h   48 % 0.00 in /  0 mm
14:55 72.2 °F /  22.3 °C 50.8 °F /  10.4 °C 30.03 in /  1016.8 hPa Calm     47 % 0.00 in /  0 mm
15:00 72.3 °F /  22.4 °C 51.5 °F /  10.8 °C 30.03 in /  1016.8 hPa WSW 2.3 mph /  3.7 km/h 2.3 mph /  3.7 km/h 48 % 0.00 in /  0 mm
15:05 72.2 °F /  22.3 °C 50.8 °F /  10.4 °C 30.03 in /  1016.8 hPa WNW 1.2 mph /  1.9 km/h   47 % 0.00 in /  0 mm
15:10 72.2 °F /  22.3 °C 50.3 °F /  10.2 °C 30.03 in /  1016.8 hPa Calm   0.4 mph /  0.6 km/h 46 % 0.00 in /  0 mm
15:15 72.1 °F /  22.3 °C 50.2 °F /  10.1 °C 30.03 in /  1016.8 hPa NW 2.3 mph /  3.7 km/h 2.3 mph /  3.7 km/h 46 % 0.00 in /  0 mm
15:20 72.0 °F /  22.2 °C 50.1 °F /  10.1 °C 30.03 in /  1016.8 hPa Calm     46 % 0.00 in /  0 mm
15:25 71.9 °F /  22.2 °C 50.0 °F /  10 °C 30.03 in /  1016.8 hPa WNW 1.2 mph /  1.9 km/h 1.2 mph /  1.9 km/h 46 % 0.00 in /  0 mm
15:30 72.0 °F /  22.2 °C 50.1 °F /  10.1 °C 30.03 in /  1016.8 hPa NW 1.2 mph /  1.9 km/h   46 % 0.00 in /  0 mm
15:35 71.9 °F /  22.2 °C 50.0 °F /  10 °C 30.03 in /  1016.8 hPa Calm     46 % 0.00 in /  0 mm
15:40 71.8 °F /  22.1 °C 51.6 °F /  10.9 °C 30.03 in /  1016.8 hPa WNW 1.2 mph /  1.9 km/h 1.2 mph /  1.9 km/h 49 % 0.00 in /  0 mm
15:45 71.7 °F /  22.1 °C 50.4 °F /  10.2 °C 30.03 in /  1016.8 hPa Calm     47 % 0.00 in /  0 mm
15:50 71.6 °F /  22 °C 51.4 °F /  10.8 °C 30.03 in /  1016.8 hPa NW 1.2 mph /  1.9 km/h 1.2 mph /  1.9 km/h 49 % 0.00 in /  0 mm
15:55 71.6 °F /  22 °C 51.4 °F /  10.8 °C 30.03 in /  1016.8 hPa WNW 2.3 mph /  3.7 km/h 2.3 mph /  3.7 km/h 49 % 0.00 in /  0 mm
16:00 71.5 °F /  21.9 °C 51.3 °F /  10.7 °C 30.03 in /  1016.8 hPa Calm     49 % 0.00 in /  0 mm
16:05 71.4 °F /  21.9 °C 50.7 °F /  10.4 °C 30.03 in /  1016.8 hPa WNW 2.3 mph /  3.7 km/h   48 % 0.00 in /  0 mm
16:10 71.3 °F /  21.8 °C 51.1 °F /  10.6 °C 30.03 in /  1016.8 hPa Calm     49 % 0.00 in /  0 mm
16:15 71.1 °F /  21.7 °C 51.0 °F /  10.6 °C 30.03 in /  1016.8 hPa Calm     49 % 0.00 in /  0 mm
16:20 71.0 °F /  21.7 °C 51.4 °F /  10.8 °C 30.03 in /  1016.8 hPa Calm     50 % 0.00 in /  0 mm
16:25 70.9 °F /  21.6 °C 51.9 °F /  11.1 °C 30.03 in /  1016.8 hPa Calm     51 % 0.00 in /  0 mm
16:30 70.7 °F /  21.5 °C 51.7 °F /  10.9 °C 30.04 in /  1017.2 hPa Calm     51 % 0.00 in /  0 mm
16:36 70.6 °F /  21.4 °C 51.6 °F /  10.9 °C 30.03 in /  1016.8 hPa WNW 1.2 mph /  1.9 km/h 1.2 mph /  1.9 km/h 51 % 0.00 in /  0 mm
16:41 70.5 °F /  21.4 °C 51.0 °F /  10.6 °C 30.03 in /  1016.8 hPa Calm     50 % 0.00 in /  0 mm
16:45 70.3 °F /  21.3 °C 51.8 °F /  11 °C 30.03 in /  1016.8 hPa Calm     52 % 0.00 in /  0 mm
16:50 70.0 °F /  21.1 °C 52.1 °F /  11.2 °C 30.03 in /  1016.8 hPa Calm     53 % 0.00 in /  0 mm
16:56 69.7 °F /  20.9 °C 51.8 °F /  11 °C 30.03 in /  1016.8 hPa Calm     53 % 0.00 in /  0 mm
17:01 69.4 °F /  20.8 °C 52.0 °F /  11.1 °C 30.03 in /  1016.8 hPa Calm     54 % 0.00 in /  0 mm
17:06 69.0 °F /  20.6 °C 52.6 °F /  11.4 °C 30.04 in /  1017.2 hPa NW 1.2 mph /  1.9 km/h 1.2 mph /  1.9 km/h 56 % 0.00 in /  0 mm
17:11 68.7 °F /  20.4 °C 52.8 °F /  11.6 °C 30.04 in /  1017.2 hPa Calm     57 % 0.00 in /  0 mm
17:16 68.1 °F /  20.1 °C 53.2 °F /  11.8 °C 30.04 in /  1017.2 hPa Calm     59 % 0.00 in /  0 mm
17:21 67.5 °F /  19.7 °C 53.1 °F /  11.7 °C 30.04 in /  1017.2 hPa Calm     60 % 0.00 in /  0 mm
17:26 67.0 °F /  19.4 °C 53.1 °F /  11.7 °C 30.04 in /  1017.2 hPa Calm     61 % 0.00 in /  0 mm
17:31 66.4 °F /  19.1 °C 53.0 °F /  11.7 °C 30.05 in /  1017.5 hPa Calm     62 % 0.00 in /  0 mm
17:36 65.6 °F /  18.7 °C 52.7 °F /  11.5 °C 30.05 in /  1017.5 hPa Calm     63 % 0.00 in /  0 mm
17:41 65.0 °F /  18.3 °C 52.9 °F /  11.6 °C 30.05 in /  1017.5 hPa Calm     65 % 0.00 in /  0 mm
17:46 64.4 °F /  18 °C 52.8 °F /  11.6 °C 30.05 in /  1017.5 hPa Calm     66 % 0.00 in /  0 mm
17:51 63.9 °F /  17.7 °C 52.7 °F /  11.5 °C 30.06 in /  1017.8 hPa Calm     67 % 0.00 in /  0 mm
17:56 63.5 °F /  17.5 °C 52.7 °F /  11.5 °C 30.06 in /  1017.8 hPa Calm     68 % 0.00 in /  0 mm
18:01 63.2 °F /  17.3 °C 52.9 °F /  11.6 °C 30.06 in /  1017.8 hPa Calm     69 % 0.00 in /  0 mm
18:06 62.8 °F /  17.1 °C 52.5 °F /  11.4 °C 30.06 in /  1017.8 hPa Calm     69 % 0.00 in /  0 mm
18:11 62.4 °F /  16.9 °C 52.9 °F /  11.6 °C 30.06 in /  1017.8 hPa Calm     71 % 0.00 in /  0 mm
18:16 61.7 °F /  16.5 °C 52.6 °F /  11.4 °C 30.07 in /  1018.2 hPa Calm     72 % 0.00 in /  0 mm
18:21 61.1 °F /  16.2 °C 52.0 °F /  11.1 °C 30.07 in /  1018.2 hPa Calm     72 % 0.00 in /  0 mm
18:26 60.7 °F /  15.9 °C 52.4 °F /  11.3 °C 30.07 in /  1018.2 hPa Calm     74 % 0.00 in /  0 mm
18:31 60.3 °F /  15.7 °C 52.3 °F /  11.3 °C 30.07 in /  1018.2 hPa Calm     75 % 0.00 in /  0 mm
18:36 60.0 °F /  15.6 °C 52.1 °F /  11.2 °C 30.07 in /  1018.2 hPa Calm     75 % 0.00 in /  0 mm
18:41 59.5 °F /  15.3 °C 51.9 °F /  11.1 °C 30.07 in /  1018.2 hPa Calm     76 % 0.00 in /  0 mm
18:46 59.1 °F /  15.1 °C 51.9 °F /  11.1 °C 30.08 in /  1018.5 hPa Calm     77 % 0.00 in /  0 mm
18:51 58.8 °F /  14.9 °C 52.0 °F /  11.1 °C 30.08 in /  1018.5 hPa Calm     78 % 0.00 in /  0 mm
18:56 58.6 °F /  14.8 °C 51.8 °F /  11 °C 30.08 in /  1018.5 hPa Calm     78 % 0.00 in /  0 mm
19:01 58.5 °F /  14.7 °C 52.0 °F /  11.1 °C 30.08 in /  1018.5 hPa Calm     79 % 0.00 in /  0 mm
19:06 58.3 °F /  14.6 °C 51.5 °F /  10.8 °C 30.08 in /  1018.5 hPa Calm     78 % 0.00 in /  0 mm
19:11 58.0 °F /  14.4 °C 51.5 °F /  10.8 °C 30.08 in /  1018.5 hPa Calm     79 % 0.00 in /  0 mm
19:16 57.8 °F /  14.3 °C 51.7 °F /  10.9 °C 30.08 in /  1018.5 hPa Calm     80 % 0.00 in /  0 mm
19:21 57.8 °F /  14.3 °C 51.7 °F /  10.9 °C 30.09 in /  1018.8 hPa Calm     80 % 0.00 in /  0 mm
19:26 57.7 °F /  14.3 °C 51.6 °F /  10.9 °C 30.09 in /  1018.8 hPa Calm     80 % 0.00 in /  0 mm
19:31 57.5 °F /  14.2 °C 51.4 °F /  10.8 °C 30.10 in /  1019.2 hPa Calm     80 % 0.00 in /  0 mm
19:36 57.6 °F /  14.2 °C 51.8 °F /  11 °C 30.10 in /  1019.2 hPa Calm     81 % 0.00 in /  0 mm
19:41 57.9 °F /  14.4 °C 51.8 °F /  11 °C 30.11 in /  1019.5 hPa Calm     80 % 0.00 in /  0 mm
19:46 57.9 °F /  14.4 °C 52.1 °F /  11.2 °C 30.10 in /  1019.2 hPa Calm     81 % 0.00 in /  0 mm
19:51 57.6 °F /  14.2 °C 51.8 °F /  11 °C 30.10 in /  1019.2 hPa Calm     81 % 0.00 in /  0 mm
19:56 57.2 °F /  14 °C 51.4 °F /  10.8 °C 30.10 in /  1019.2 hPa Calm     81 % 0.00 in /  0 mm
20:01 57.1 °F /  13.9 °C 51.3 °F /  10.7 °C 30.10 in /  1019.2 hPa Calm     81 % 0.00 in /  0 mm
20:06 56.8 °F /  13.8 °C 51.0 °F /  10.6 °C 30.11 in /  1019.5 hPa Calm     81 % 0.00 in /  0 mm
20:11 56.5 °F /  13.6 °C 50.7 °F /  10.4 °C 30.11 in /  1019.5 hPa Calm     81 % 0.00 in /  0 mm
20:16 56.2 °F /  13.4 °C 50.8 °F /  10.4 °C 30.11 in /  1019.5 hPa Calm     82 % 0.00 in /  0 mm
20:21 55.9 °F /  13.3 °C 50.5 °F /  10.3 °C 30.11 in /  1019.5 hPa Calm     82 % 0.00 in /  0 mm
20:26 55.8 °F /  13.2 °C 50.4 °F /  10.2 °C 30.11 in /  1019.5 hPa Calm     82 % 0.00 in /  0 mm
20:31 55.5 °F /  13.1 °C 50.4 °F /  10.2 °C 30.11 in /  1019.5 hPa Calm     83 % 0.00 in /  0 mm
20:36 55.2 °F /  12.9 °C 50.4 °F /  10.2 °C 30.12 in /  1019.9 hPa Calm     84 % 0.00 in /  0 mm
20:41 54.5 °F /  12.5 °C 49.4 °F /  9.7 °C 30.12 in /  1019.9 hPa Calm     83 % 0.00 in /  0 mm
20:46 53.8 °F /  12.1 °C 49.1 °F /  9.5 °C 30.12 in /  1019.9 hPa Calm     84 % 0.00 in /  0 mm
20:51 53.6 °F /  12 °C 49.5 °F /  9.7 °C 30.12 in /  1019.9 hPa Calm     86 % 0.00 in /  0 mm
20:56 53.9 °F /  12.2 °C 49.8 °F /  9.9 °C 30.12 in /  1019.9 hPa Calm     86 % 0.00 in /  0 mm
21:01 54.3 °F /  12.4 °C 50.2 °F /  10.1 °C 30.13 in /  1020.2 hPa Calm     86 % 0.00 in /  0 mm
21:06 54.5 °F /  12.5 °C 50.1 °F /  10.1 °C 30.13 in /  1020.2 hPa Calm     85 % 0.00 in /  0 mm
21:11 54.4 °F /  12.4 °C 50.0 °F /  10 °C 30.13 in /  1020.2 hPa Calm     85 % 0.00 in /  0 mm
21:16 54.3 °F /  12.4 °C 49.9 °F /  9.9 °C 30.13 in /  1020.2 hPa Calm     85 % 0.00 in /  0 mm
21:21 54.0 °F /  12.2 °C 49.6 °F /  9.8 °C 30.14 in /  1020.5 hPa Calm     85 % 0.00 in /  0 mm
21:26 53.7 °F /  12.1 °C 49.3 °F /  9.6 °C 30.13 in /  1020.2 hPa Calm     85 % 0.00 in /  0 mm
21:31 53.6 °F /  12 °C 49.5 °F /  9.7 °C 30.14 in /  1020.5 hPa Calm     86 % 0.00 in /  0 mm
21:36 53.3 °F /  11.8 °C 48.9 °F /  9.4 °C 30.14 in /  1020.5 hPa Calm     85 % 0.00 in /  0 mm
21:41 52.9 °F /  11.6 °C 48.8 °F /  9.3 °C 30.14 in /  1020.5 hPa Calm     86 % 0.00 in /  0 mm
21:46 52.6 °F /  11.4 °C 48.8 °F /  9.3 °C 30.14 in /  1020.5 hPa Calm     87 % 0.00 in /  0 mm
21:51 52.5 °F /  11.4 °C 49.0 °F /  9.4 °C 30.15 in /  1020.9 hPa Calm     88 % 0.00 in /  0 mm
21:56 52.6 °F /  11.4 °C 49.1 °F /  9.5 °C 30.15 in /  1020.9 hPa Calm     88 % 0.00 in /  0 mm
22:01 52.3 °F /  11.3 °C 48.5 °F /  9.2 °C 30.15 in /  1020.9 hPa Calm     87 % 0.00 in /  0 mm
22:06 52.1 °F /  11.2 °C 48.7 °F /  9.3 °C 30.15 in /  1020.9 hPa Calm     88 % 0.00 in /  0 mm
22:11 52.1 °F /  11.2 °C 48.7 °F /  9.3 °C 30.15 in /  1020.9 hPa Calm     88 % 0.00 in /  0 mm
22:16 52.1 °F /  11.2 °C 49.0 °F /  9.4 °C 30.15 in /  1020.9 hPa Calm     89 % 0.00 in /  0 mm
22:21 52.2 °F /  11.2 °C 49.1 °F /  9.5 °C 30.16 in /  1021.2 hPa Calm     89 % 0.00 in /  0 mm
22:26 52.2 °F /  11.2 °C 48.8 °F /  9.3 °C 30.16 in /  1021.2 hPa Calm     88 % 0.00 in /  0 mm
22:31 52.1 °F /  11.2 °C 48.7 °F /  9.3 °C 30.16 in /  1021.2 hPa Calm     88 % 0.00 in /  0 mm
22:36 51.8 °F /  11 °C 48.1 °F /  8.9 °C 30.16 in /  1021.2 hPa Calm     87 % 0.00 in /  0 mm
22:41 51.6 °F /  10.9 °C 48.2 °F /  9 °C 30.16 in /  1021.2 hPa Calm     88 % 0.00 in /  0 mm
22:46 51.5 °F /  10.8 °C 48.1 °F /  8.9 °C 30.16 in /  1021.2 hPa Calm     88 % 0.00 in /  0 mm
22:51 51.3 °F /  10.7 °C 47.9 °F /  8.8 °C 30.17 in /  1021.6 hPa Calm     88 % 0.00 in /  0 mm
22:56 51.3 °F /  10.7 °C 47.9 °F /  8.8 °C 30.17 in /  1021.6 hPa Calm     88 % 0.00 in /  0 mm
23:01 51.3 °F /  10.7 °C 47.9 °F /  8.8 °C 30.17 in /  1021.6 hPa Calm     88 % 0.00 in /  0 mm
23:06 51.1 °F /  10.6 °C 47.7 °F /  8.7 °C 30.17 in /  1021.6 hPa Calm     88 % 0.00 in /  0 mm
23:11 50.8 °F /  10.4 °C 47.1 °F /  8.4 °C 30.17 in /  1021.6 hPa Calm     87 % 0.00 in /  0 mm
23:16 50.4 °F /  10.2 °C 46.7 °F /  8.2 °C 30.17 in /  1021.6 hPa Calm     87 % 0.00 in /  0 mm
23:22 50.2 °F /  10.1 °C 46.8 °F /  8.2 °C 30.17 in /  1021.6 hPa Calm     88 % 0.00 in /  0 mm
23:27 50.0 °F /  10 °C 46.9 °F /  8.3 °C 30.17 in /  1021.6 hPa Calm     89 % 0.00 in /  0 mm
23:32 49.9 °F /  9.9 °C 47.1 °F /  8.4 °C 30.17 in /  1021.6 hPa Calm     90 % 0.00 in /  0 mm
23:37 50.1 °F /  10.1 °C 47.6 °F /  8.7 °C 30.17 in /  1021.6 hPa Calm     91 % 0.00 in /  0 mm
23:42 50.3 °F /  10.2 °C 47.8 °F /  8.8 °C 30.18 in /  1021.9 hPa Calm     91 % 0.00 in /  0 mm
23:47 50.4 °F /  10.2 °C 47.9 °F /  8.8 °C 30.18 in /  1021.9 hPa Calm     91 % 0.00 in /  0 mm
23:52 50.5 °F /  10.3 °C 47.7 °F /  8.7 °C 30.18 in /  1021.9 hPa Calm     90 % 0.00 in /  0 mm
23:57 50.3 °F /  10.2 °C 47.2 °F /  8.4 °C 30.18 in /  1021.9 hPa Calm     89 % 0.00 in /  0 mm
Park Place, Exeter, Tulare County, California, USA
Compliments of Weather Underground - 2.75 mb